Time;durP1;ratioP1;P1;durP2;ratioP2;P2;SDS_P1;SDS_P2;PMS_P1;PMS_P2;Temp;Humidity;BMP_temperature;BMP_pressure;BME280_temperature;BME280_humidity;BME280_pressure;Samples;Min_cycle;Max_cycle;Signal;HPM_P1;HPM_P2
2021/10/28 00:15:06;;;;;;;14.70;8.25;;;;;;;10.29;100.00;101965.03;4992386;28;20038;-81
2021/10/28 00:18:09;;;;;;;15.60;8.68;;;;;;;10.24;100.00;101961.91;4988700;28;20656;-80
2021/10/28 00:20:23;;;;;;;15.05;8.57;;;;;;;10.18;100.00;101970.22;5030369;28;20049;-81
2021/10/28 00:22:50;;;;;;;14.00;8.55;;;;;;;10.09;100.00;101963.88;5038391;28;20056;-81
2021/10/28 00:25:15;;;;;;;14.57;8.68;;;;;;;10.06;100.00;101970.19;5038903;28;20045;-81
2021/10/28 00:27:41;;;;;;;14.43;8.88;;;;;;;9.99;100.00;101962.88;5033208;28;20186;-81
2021/10/28 00:30:07;;;;;;;14.55;8.50;;;;;;;9.97;100.00;101960.38;5039096;28;20037;-82
2021/10/28 00:32:32;;;;;;;13.65;8.13;;;;;;;9.91;100.00;101963.47;5027435;28;20399;-82
2021/10/28 00:34:58;;;;;;;15.57;8.40;;;;;;;9.81;100.00;101957.19;5037746;28;20035;-81
2021/10/28 00:37:23;;;;;;;12.68;8.55;;;;;;;9.75;100.00;101961.91;5037702;28;20032;-81
2021/10/28 00:39:50;;;;;;;16.38;8.80;;;;;;;9.70;100.00;101957.97;5018281;28;20077;-81
2021/10/28 00:42:17;;;;;;;14.55;8.40;;;;;;;9.67;100.00;101969.50;5016435;28;20156;-81
2021/10/28 00:44:45;;;;;;;12.68;7.88;;;;;;;9.60;100.00;101962.22;5006415;28;20033;-81
2021/10/28 00:47:11;;;;;;;12.35;7.95;;;;;;;9.50;100.00;101964.66;5017327;28;20063;-81
2021/10/28 00:49:38;;;;;;;14.45;8.30;;;;;;;9.50;100.00;101965.47;5055349;28;20097;-81
2021/10/28 00:52:04;;;;;;;14.25;8.85;;;;;;;9.47;100.00;101960.44;5029654;28;20057;-82
2021/10/28 00:54:29;;;;;;;14.45;8.52;;;;;;;9.41;100.00;101955.66;5035645;28;20388;-82
2021/10/28 00:56:56;;;;;;;17.10;8.57;;;;;;;9.42;100.00;101965.19;5050921;28;20037;-81
2021/10/28 00:59:21;;;;;;;13.60;7.68;;;;;;;9.32;100.00;101958.94;5035590;28;20039;-81
2021/10/28 01:01:47;;;;;;;14.02;7.68;;;;;;;9.18;100.00;101957.28;5037737;28;20045;-81
2021/10/28 01:04:13;;;;;;;17.13;8.10;;;;;;;9.03;100.00;101955.75;5041834;28;20678;-81
2021/10/28 01:06:40;;;;;;;17.25;7.90;;;;;;;8.89;100.00;101960.16;5011904;28;20124;-81
2021/10/28 01:09:07;;;;;;;20.95;8.60;;;;;;;8.81;100.00;101967.69;5037148;28;20525;-81
2021/10/28 01:11:33;;;;;;;12.63;7.50;;;;;;;8.73;100.00;101959.53;5037619;28;20121;-81
2021/10/28 01:13:59;;;;;;;22.83;9.80;;;;;;;8.93;100.00;101958.19;5022009;28;20069;-81
2021/10/28 01:16:26;;;;;;;14.88;9.60;;;;;;;8.89;100.00;101951.44;5014328;28;20033;-80
2021/10/28 01:18:53;;;;;;;17.40;9.98;;;;;;;8.91;100.00;101955.66;5001506;28;20450;-81
2021/10/28 01:21:18;;;;;;;27.75;9.15;;;;;;;8.94;100.00;101951.97;5033406;28;20036;-81
2021/10/28 01:23:46;;;;;;;17.70;8.90;;;;;;;8.90;100.00;101956.59;5019521;28;20037;-81
2021/10/28 01:26:13;;;;;;;18.75;8.20;;;;;;;8.82;100.00;101953.69;5017312;28;20049;-81
2021/10/28 01:28:53;;;;;;;23.27;8.75;;;;;;;8.74;100.00;101948.13;5024726;28;20029;-82
2021/10/28 01:31:21;;;;;;;16.98;9.00;;;;;;;8.68;100.00;101945.91;5033134;28;20502;-82
2021/10/28 01:33:48;;;;;;;17.85;8.63;;;;;;;8.70;100.00;101949.28;5049680;28;20038;-81
2021/10/28 01:36:17;;;;;;;17.35;8.88;;;;;;;8.67;100.00;101950.31;5036803;28;20125;-81
2021/10/28 01:38:43;;;;;;;16.92;9.68;;;;;;;8.66;100.00;101950.41;5015790;28;20048;-81
2021/10/28 01:41:10;;;;;;;13.45;9.70;;;;;;;8.53;100.00;101937.34;5036435;28;20064;-81
2021/10/28 01:43:35;;;;;;;16.95;9.35;;;;;;;8.50;100.00;101938.38;5015309;28;20065;-81
2021/10/28 01:46:02;;;;;;;23.02;9.48;;;;;;;8.46;100.00;101947.38;5036526;28;20479;-81
2021/10/28 01:48:28;;;;;;;19.38;9.88;;;;;;;8.42;100.00;101950.28;5000624;28;20033;-81
2021/10/28 01:50:55;;;;;;;22.33;9.82;;;;;;;8.35;100.00;101947.25;5032157;28;20039;-82
2021/10/28 01:53:21;;;;;;;19.60;10.02;;;;;;;8.44;100.00;101951.03;5017462;28;20033;-83
2021/10/28 01:55:47;;;;;;;22.58;12.07;;;;;;;8.47;100.00;101945.59;5013225;28;20036;-81
2021/10/28 01:58:12;;;;;;;29.88;10.82;;;;;;;8.50;100.00;101934.94;5020328;28;20036;-81
2021/10/28 02:00:40;;;;;;;19.42;10.57;;;;;;;8.57;100.00;101933.59;5028225;28;20040;-82
2021/10/28 02:03:05;;;;;;;17.70;11.05;;;;;;;8.59;100.00;101931.72;5047617;28;20171;-81
2021/10/28 02:05:31;;;;;;;18.98;11.13;;;;;;;8.61;100.00;101929.81;5020082;28;20086;-81
2021/10/28 02:07:56;;;;;;;22.00;11.85;;;;;;;8.63;100.00;101932.34;5041452;28;20033;-81
2021/10/28 02:10:22;;;;;;;24.35;11.80;;;;;;;8.69;100.00;101930.13;5038748;28;20040;-81
2021/10/28 02:12:48;;;;;;;24.95;12.88;;;;;;;8.76;100.00;101935.78;5021401;28;20029;-81
2021/10/28 02:15:17;;;;;;;20.52;12.90;;;;;;;8.73;100.00;101933.38;5019541;28;20486;-81
2021/10/28 02:17:43;;;;;;;21.38;12.43;;;;;;;8.74;100.00;101938.50;5018886;28;20033;-81
2021/10/28 02:20:12;;;;;;;24.20;14.57;;;;;;;8.71;100.00;101937.88;5020184;28;20036;-81
2021/10/28 02:22:39;;;;;;;26.02;13.52;;;;;;;8.63;100.00;101925.31;5011729;28;20041;-81
2021/10/28 02:25:07;;;;;;;20.23;12.77;;;;;;;8.57;100.00;101928.38;5002944;28;20039;-82
2021/10/28 02:27:33;;;;;;;23.92;14.55;;;;;;;8.63;100.00;101933.16;5027503;28;20094;-81
2021/10/28 02:29:59;;;;;;;22.38;15.18;;;;;;;8.72;100.00;101940.41;5032920;28;20041;-81
2021/10/28 02:32:24;;;;;;;26.98;15.77;;;;;;;8.75;100.00;101929.69;5032827;28;20041;-81
2021/10/28 02:34:51;;;;;;;30.73;16.75;;;;;;;8.79;100.00;101932.94;5047568;28;20033;-80
2021/10/28 02:37:17;;;;;;;33.55;17.08;;;;;;;8.80;100.00;101932.00;5039325;28;20548;-82
2021/10/28 02:39:43;;;;;;;21.98;14.32;;;;;;;8.75;100.00;101926.25;5019855;28;20021;-83
2021/10/28 02:42:11;;;;;;;25.92;14.32;;;;;;;8.64;100.00;101918.31;5034084;28;20052;-81
2021/10/28 02:44:37;;;;;;;26.20;15.63;;;;;;;8.63;100.00;101925.31;5023157;28;20629;-81
2021/10/28 02:47:03;;;;;;;25.02;14.00;;;;;;;8.65;100.00;101927.84;5024136;28;20033;-82
2021/10/28 02:49:28;;;;;;;28.10;16.55;;;;;;;8.67;100.00;101918.94;5024517;28;20087;-81
2021/10/28 02:51:54;;;;;;;26.60;16.33;;;;;;;8.69;100.00;101922.28;5015332;28;20021;-82
2021/10/28 02:54:22;;;;;;;24.52;15.65;;;;;;;8.69;100.00;101924.91;5032661;28;20123;-82
2021/10/28 02:56:49;;;;;;;22.52;14.55;;;;;;;8.63;100.00;101927.13;5021137;28;20041;-81
2021/10/28 02:59:16;;;;;;;26.70;15.23;;;;;;;8.54;100.00;101928.56;5019639;28;20037;-81
2021/10/28 03:01:43;;;;;;;21.83;14.50;;;;;;;8.50;100.00;101927.09;5035339;28;20037;-81
2021/10/28 03:04:13;;;;;;;22.83;14.38;;;;;;;8.43;100.00;101923.22;5016209;28;20232;-81
2021/10/28 03:06:40;;;;;;;27.77;13.75;;;;;;;8.33;100.00;101925.59;5024920;28;20492;-82
2021/10/28 03:09:08;;;;;;;19.73;12.68;;;;;;;8.25;100.00;101925.25;5021710;28;20037;-82
2021/10/28 03:11:35;;;;;;;20.05;13.00;;;;;;;8.17;100.00;101923.16;5008361;28;20457;-81
2021/10/28 03:14:00;;;;;;;19.80;13.35;;;;;;;8.10;100.00;101917.50;5035378;28;20509;-81
2021/10/28 03:16:44;;;;;;;20.30;13.30;;;;;;;7.99;100.00;101920.81;5031888;28;20041;-80
2021/10/28 03:27:23;;;;;;;21.27;13.63;;;;;;;7.91;100.00;101917.03;5032104;28;20057;-81
2021/10/28 03:29:49;;;;;;;24.60;13.93;;;;;;;7.91;100.00;101911.81;5031923;28;20079;-81
2021/10/28 03:32:14;;;;;;;24.30;14.15;;;;;;;7.88;100.00;101914.63;5000901;28;20033;-81
2021/10/28 03:34:41;;;;;;;19.48;13.68;;;;;;;7.83;100.00;101920.13;5038821;28;20364;-81
2021/10/28 03:37:12;;;;;;;21.65;13.85;;;;;;;7.78;100.00;101920.44;5037928;28;20045;-81
2021/10/28 03:45:25;;;;;;;18.25;12.45;;;;;;;7.62;100.00;101914.53;5034869;28;20021;-80
2021/10/28 04:20:39;;;;;;;23.17;14.82;;;;;;;7.39;100.00;101903.78;5011043;28;20053;-82
2021/10/28 04:31:19;;;;;;;22.02;13.48;;;;;;;7.08;100.00;101891.81;5025981;28;20396;-82
2021/10/28 04:33:44;;;;;;;24.95;13.05;;;;;;;7.05;100.00;101891.19;5026983;28;20034;-84
2021/10/28 04:36:11;;;;;;;22.20;13.40;;;;;;;7.00;100.00;101888.84;5040837;28;20086;-83
2021/10/28 04:38:36;;;;;;;20.95;13.98;;;;;;;6.99;100.00;101881.97;5036010;28;20032;-81
2021/10/28 04:41:02;;;;;;;22.08;14.20;;;;;;;7.01;100.00;101883.53;5043475;28;20415;-82
2021/10/28 04:43:27;;;;;;;22.75;13.65;;;;;;;7.05;100.00;101878.97;5024610;28;20071;-82
2021/10/28 04:45:53;;;;;;;27.55;14.98;;;;;;;7.07;100.00;101897.97;5028088;28;20040;-82
2021/10/28 04:48:18;;;;;;;24.42;15.85;;;;;;;7.19;100.00;101898.97;5021342;28;20040;-82
2021/10/28 04:50:44;;;;;;;28.83;17.35;;;;;;;7.28;100.00;101892.34;5020531;28;20033;-83
2021/10/28 04:53:10;;;;;;;37.55;18.20;;;;;;;7.35;100.00;101893.66;5047658;28;20036;-81
2021/10/28 04:55:35;;;;;;;33.55;18.42;;;;;;;7.40;100.00;101894.16;5035117;28;20115;-82
2021/10/28 04:58:01;;;;;;;32.40;19.00;;;;;;;7.47;100.00;101887.63;5055946;28;20037;-82
2021/10/28 05:00:26;;;;;;;32.45;18.50;;;;;;;7.48;100.00;101884.09;5021691;28;20037;-81
2021/10/28 05:02:52;;;;;;;36.08;19.55;;;;;;;7.47;100.00;101889.41;5037272;28;20033;-81
2021/10/28 05:05:17;;;;;;;32.90;19.00;;;;;;;7.54;100.00;101890.69;5037697;28;20487;-82
2021/10/28 05:07:43;;;;;;;34.78;17.77;;;;;;;7.51;100.00;101890.88;5024132;28;20029;-82
2021/10/28 05:10:08;;;;;;;31.98;17.33;;;;;;;7.48;100.00;101888.47;5038402;28;20494;-83
2021/10/28 05:12:34;;;;;;;28.40;16.30;;;;;;;7.36;100.00;101883.09;5028157;28;20104;-83
2021/10/28 05:14:59;;;;;;;28.88;16.20;;;;;;;7.31;100.00;101885.16;5029798;28;20041;-81
2021/10/28 05:17:25;;;;;;;25.80;15.50;;;;;;;7.29;100.00;101888.78;5018412;28;20044;-82
2021/10/28 05:19:50;;;;;;;28.80;16.60;;;;;;;7.28;100.00;101887.13;5037968;28;20032;-79
2021/10/28 05:22:18;;;;;;;28.88;16.45;;;;;;;7.27;100.00;101883.69;5020918;28;20048;-82
2021/10/28 05:24:43;;;;;;;29.88;16.10;;;;;;;7.30;100.00;101880.88;5050768;28;20159;-82
2021/10/28 05:27:08;;;;;;;32.65;16.08;;;;;;;7.28;100.00;101884.53;5037500;28;20052;-83
2021/10/28 05:29:34;;;;;;;31.67;16.10;;;;;;;7.24;100.00;101881.28;5023660;28;20039;-81
2021/10/28 05:31:59;;;;;;;24.77;15.63;;;;;;;7.21;100.00;101882.31;5017325;28;20032;-81
2021/10/28 05:34:25;;;;;;;22.48;14.40;;;;;;;7.15;100.00;101884.44;5037662;28;20130;-82
2021/10/28 05:36:51;;;;;;;23.52;15.60;;;;;;;7.10;100.00;101868.25;5007312;28;20491;-82
2021/10/28 05:39:16;;;;;;;29.50;15.93;;;;;;;7.14;100.00;101882.75;5036771;28;20037;-83
2021/10/28 05:41:42;;;;;;;31.05;16.27;;;;;;;6.94;100.00;101856.16;5038424;28;20029;-83
2021/10/28 05:44:08;;;;;;;28.55;15.20;;;;;;;7.07;100.00;101879.72;5024014;28;20029;-83
2021/10/28 05:46:34;;;;;;;33.17;15.38;;;;;;;6.97;100.00;101874.25;5053464;28;20108;-83
2021/10/28 05:48:59;;;;;;;23.40;13.80;;;;;;;6.87;100.00;101851.44;5054598;28;20661;-84
2021/10/28 05:51:26;;;;;;;24.80;14.00;;;;;;;6.88;100.00;101860.94;5015294;28;20108;-83
2021/10/28 05:53:52;;;;;;;24.55;13.63;;;;;;;6.92;100.00;101889.34;5018776;28;20087;-83
2021/10/28 05:56:18;;;;;;;21.85;13.68;;;;;;;6.82;100.00;101868.19;5018221;28;20033;-82
2021/10/28 05:58:43;;;;;;;22.38;12.95;;;;;;;6.83;100.00;101884.69;5038073;28;20083;-82
2021/10/28 06:01:09;;;;;;;20.98;12.73;;;;;;;6.77;100.00;101882.44;5034195;28;20037;-82
2021/10/28 06:03:36;;;;;;;18.17;12.73;;;;;;;6.66;100.00;101874.44;5025172;28;20033;-83
2021/10/28 06:06:03;;;;;;;23.05;12.60;;;;;;;6.63;100.00;101872.88;5023039;28;20129;-83
2021/10/28 06:08:28;;;;;;;19.98;12.13;;;;;;;6.60;100.00;101873.88;5026930;28;20090;-81
2021/10/28 06:10:54;;;;;;;22.23;12.77;;;;;;;6.56;100.00;101887.22;5012538;28;20501;-83
2021/10/28 06:13:20;;;;;;;22.23;12.02;;;;;;;6.33;100.00;101854.69;5023927;28;20124;-82
2021/10/28 06:15:47;;;;;;;21.80;12.75;;;;;;;6.38;100.00;101865.69;5017902;28;20368;-82
2021/10/28 06:20:39;;;;;;;21.77;12.85;;;;;;;6.59;100.00;101889.59;5035875;28;20033;-81
2021/10/28 06:23:04;;;;;;;24.60;13.23;;;;;;;6.45;100.00;101872.19;5021409;28;20072;-81
2021/10/28 06:25:30;;;;;;;19.05;13.00;;;;;;;6.63;100.00;101899.78;5002367;28;20411;-82
2021/10/28 06:27:56;;;;;;;27.65;14.43;;;;;;;6.70;100.00;101897.63;5001939;28;20046;-83
2021/10/28 06:30:22;;;;;;;23.92;13.48;;;;;;;6.58;100.00;101867.94;5015979;28;20063;-82
2021/10/28 06:32:53;;;;;;;24.55;12.63;;;;;;;6.72;100.00;101889.72;5031056;28;20332;-83
2021/10/28 06:35:21;;;;;;;23.80;13.05;;;;;;;6.67;100.00;101895.22;5032414;28;20119;-83
2021/10/28 06:37:48;;;;;;;19.88;12.43;;;;;;;6.63;100.00;101883.31;5036729;28;20041;-82
2021/10/28 06:40:17;;;;;;;17.67;11.80;;;;;;;6.65;100.00;101888.41;5039045;28;20453;-82
2021/10/28 06:42:43;;;;;;;17.02;11.15;;;;;;;6.60;100.00;101879.09;5007417;28;20120;-82
2021/10/28 06:45:09;;;;;;;34.75;12.70;;;;;;;6.55;100.00;101868.09;5036654;28;20487;-82
2021/10/28 06:47:35;;;;;;;27.17;12.48;;;;;;;6.64;100.00;101871.94;5013494;28;20120;-83
2021/10/28 06:50:07;;;;;;;21.75;12.57;;;;;;;6.74;100.00;101875.66;5053668;28;20056;-83
2021/10/28 06:55:25;;;;;;;21.30;12.32;;;;;;;6.91;100.00;101887.66;5014236;28;20033;-82
2021/10/28 07:03:00;;;;;;;24.85;13.25;;;;;;;6.95;100.00;101870.03;5038576;28;20096;-83
2021/10/28 07:05:26;;;;;;;21.80;13.55;;;;;;;7.14;100.00;101880.16;5008207;28;20064;-83
2021/10/28 07:07:51;;;;;;;20.15;13.30;;;;;;;7.04;100.00;101858.19;5036533;28;20033;-82
2021/10/28 07:10:21;;;;;;;18.77;13.93;;;;;;;7.22;100.00;101873.53;5053966;28;20120;-83
2021/10/28 07:12:53;;;;;;;20.38;13.93;;;;;;;7.28;100.00;101876.69;5033151;28;20331;-83
2021/10/28 07:15:32;;;;;;;27.47;15.00;;;;;;;7.36;100.00;101877.03;5026990;28;20063;-83
2021/10/28 07:30:49;;;;;;;27.67;15.02;;;;;;;8.02;100.00;101887.59;5032110;28;20530;-82
2021/10/28 07:33:26;;;;;;;32.35;16.30;;;;;;;8.09;100.00;101881.84;5020096;28;20087;-83
2021/10/28 07:36:22;;;;;;;23.27;15.57;;;;;;;8.22;100.00;101883.66;5024505;28;20120;-83
2021/10/28 07:55:47;;;;;;;26.70;15.82;;;;;;;8.82;100.00;101896.13;5016598;28;20616;-82
2021/10/28 08:17:06;;;;;;;24.95;16.42;;;;;;;9.33;100.00;101884.69;5041574;28;20119;-82
2021/10/28 08:19:45;;;;;;;25.25;16.10;;;;;;;9.41;100.00;101873.66;5034159;28;20047;-81
2021/10/28 08:30:12;;;;;;;26.83;15.68;;;;;;;9.78;100.00;101884.06;5048552;28;20494;-83
2021/10/28 08:32:38;;;;;;;24.15;15.40;;;;;;;9.83;100.00;101884.53;5011099;28;20033;-82
2021/10/28 08:35:05;;;;;;;22.30;14.88;;;;;;;9.79;100.00;101883.09;5013848;28;20400;-82
2021/10/28 08:37:41;;;;;;;23.35;15.70;;;;;;;9.80;100.00;101877.75;5013877;28;20388;-81
2021/10/28 08:40:09;;;;;;;24.02;15.55;;;;;;;9.97;100.00;101870.44;5019034;28;20171;-82
2021/10/28 08:42:35;;;;;;;27.42;15.23;;;;;;;10.04;100.00;101879.47;5035807;28;20495;-82
2021/10/28 08:45:02;;;;;;;24.95;14.98;;;;;;;10.10;100.00;101872.00;5038635;28;20025;-82
2021/10/28 08:47:29;;;;;;;25.75;14.77;;;;;;;10.26;100.00;101870.84;5010166;28;20033;-82
2021/10/28 08:55:01;;;;;;;23.25;14.85;;;;;;;10.42;100.00;101854.81;5021795;28;20037;-82
2021/10/28 09:00:24;;;;;;;20.60;14.20;;;;;;;10.72;100.00;101856.84;5017608;28;20064;-82
2021/10/28 09:25:39;;;;;;;16.60;11.98;;;;;;;11.30;100.00;101832.97;5046065;28;20024;-82
2021/10/28 09:28:35;;;;;;;18.73;11.70;;;;;;;11.36;100.00;101834.25;5036600;28;20040;-81
2021/10/28 09:31:10;;;;;;;15.68;11.73;;;;;;;11.50;100.00;101832.16;5030960;28;20094;-82
2021/10/28 09:34:09;;;;;;;18.63;11.45;;;;;;;11.57;100.00;101835.13;5052244;28;20482;-82
2021/10/28 09:45:27;;;;;;;18.65;11.68;;;;;;;12.02;100.00;101828.84;5016235;28;20116;-82
2021/10/28 09:50:30;;;;;;;15.77;10.70;;;;;;;12.08;100.00;101841.47;5052661;28;20040;-82
2021/10/28 09:58:24;;;;;;;12.70;10.32;;;;;;;12.35;100.00;101830.38;5030802;28;20044;-81
2021/10/28 10:00:51;;;;;;;13.30;9.93;;;;;;;12.41;100.00;101834.28;5042506;28;20116;-82
2021/10/28 10:05:55;;;;;;;13.30;9.88;;;;;;;12.54;100.00;101824.38;5041437;28;20041;-82
2021/10/28 10:08:23;;;;;;;18.33;10.70;;;;;;;12.76;100.00;101825.16;5014106;28;21735;-82
2021/10/28 10:10:48;;;;;;;14.38;9.30;;;;;;;12.73;100.00;101831.50;5002396;28;20036;-81
2021/10/28 10:13:14;;;;;;;13.90;9.60;;;;;;;12.84;100.00;101836.66;5018969;28;20506;-81
2021/10/28 10:15:39;;;;;;;14.48;9.70;;;;;;;12.92;100.00;101835.16;5022450;28;20044;-80
2021/10/28 10:18:07;;;;;;;16.88;9.38;;;;;;;13.02;99.35;101830.75;5043926;28;20036;-80
2021/10/28 10:20:51;;;;;;;15.10;9.95;;;;;;;13.05;98.21;101826.06;5032408;28;20076;-80
2021/10/28 10:23:26;;;;;;;13.55;9.35;;;;;;;13.14;99.08;101821.75;5019737;28;20529;-82
2021/10/28 10:26:50;;;;;;;13.18;8.57;;;;;;;13.25;99.21;101821.63;5010712;28;20017;-83
2021/10/28 10:29:45;;;;;;;12.52;7.63;;;;;;;13.44;98.00;101823.47;5033440;28;20498;-80
2021/10/28 12:29:04;;;;;;;2.35;1.75;;;;;;;17.22;73.98;101659.13;5030841;28;20033;-81
2021/10/28 12:45:33;;;;;;;2.03;1.40;;;;;;;20.37;61.32;101638.53;5035188;28;20041;-79
2021/10/28 13:07:15;;;;;;;2.10;1.20;;;;;;;18.07;68.91;101606.28;5015382;28;20070;-80
2021/10/28 13:28:08;;;;;;;4.05;1.10;;;;;;;17.91;70.11;101603.72;5018498;28;20045;-80
2021/10/28 13:58:53;;;;;;;2.97;0.70;;;;;;;15.64;75.46;101537.28;5041288;28;20067;-81
2021/10/28 14:15:44;;;;;;;3.50;0.80;;;;;;;14.90;80.48;101523.75;5030485;28;20044;-82
2021/10/28 14:18:40;;;;;;;2.08;0.80;;;;;;;14.88;79.63;101517.78;5034484;28;20086;-82
2021/10/28 14:23:51;;;;;;;1.52;1.10;;;;;;;14.67;81.34;101522.56;5018637;28;20499;-82
2021/10/28 14:26:51;;;;;;;2.33;1.38;;;;;;;14.59;81.40;101512.78;5019667;28;20033;-81
2021/10/28 15:01:57;;;;;;;3.45;2.25;;;;;;;13.91;85.30;101497.50;5015944;28;20032;-82
2021/10/28 15:29:11;;;;;;;2.80;1.20;;;;;;;13.29;88.41;101468.31;5051815;28;20035;-81
2021/10/28 15:42:26;;;;;;;3.97;1.50;;;;;;;12.99;91.42;101439.44;5033890;28;20056;-81
2021/10/28 16:00:53;;;;;;;5.90;1.60;;;;;;;12.40;94.13;101432.72;5045919;28;20037;-81
2021/10/28 16:22:28;;;;;;;4.03;2.80;;;;;;;11.24;100.00;101415.91;5018761;28;20514;-81
2021/10/28 16:24:54;;;;;;;4.20;3.35;;;;;;;11.16;100.00;101418.38;5053985;28;20021;-81
2021/10/28 16:27:20;;;;;;;4.93;2.58;;;;;;;11.11;100.00;101413.50;5029578;28;20043;-81
2021/10/28 16:29:46;;;;;;;6.20;3.03;;;;;;;11.15;100.00;101416.72;5037010;28;20025;-81
2021/10/28 16:32:14;;;;;;;4.35;2.60;;;;;;;11.13;100.00;101427.34;5020745;28;20041;-81
2021/10/28 16:34:40;;;;;;;2.83;1.90;;;;;;;11.08;100.00;101419.06;5023458;28;20044;-81
2021/10/28 16:37:06;;;;;;;5.05;2.13;;;;;;;11.00;100.00;101427.59;5020559;28;20029;-82
2021/10/28 16:39:31;;;;;;;3.08;2.10;;;;;;;10.94;100.00;101422.03;5044909;28;20029;-81
2021/10/28 16:41:57;;;;;;;6.88;1.75;;;;;;;10.97;100.00;101419.16;5034745;28;20036;-81
2021/10/28 16:44:23;;;;;;;4.57;2.03;;;;;;;10.94;100.00;101412.34;5042760;28;20044;-83
2021/10/28 16:46:50;;;;;;;3.95;1.90;;;;;;;10.97;100.00;101416.53;5021279;28;20025;-83
2021/10/28 16:49:16;;;;;;;2.83;1.70;;;;;;;10.89;100.00;101418.00;5023890;28;20120;-82
2021/10/28 16:51:43;;;;;;;3.90;2.08;;;;;;;10.74;100.00;101414.09;5009903;28;20522;-83
2021/10/28 16:54:09;;;;;;;4.07;2.20;;;;;;;10.64;100.00;101406.16;5031726;28;20175;-84
2021/10/28 16:56:34;;;;;;;6.65;3.80;;;;;;;10.63;100.00;101404.50;5020885;28;20071;-84
2021/10/28 16:59:00;;;;;;;7.07;4.82;;;;;;;10.60;100.00;101406.53;5039717;28;20045;-83
2021/10/28 17:01:26;;;;;;;5.25;4.22;;;;;;;10.50;100.00;101388.97;5027084;28;20045;-83
2021/10/28 17:03:51;;;;;;;7.03;3.60;;;;;;;10.59;100.00;101395.22;5041045;28;20572;-85
2021/10/28 17:06:17;;;;;;;4.85;3.80;;;;;;;10.49;100.00;101405.69;5042064;28;20053;-85
2021/10/28 17:08:44;;;;;;;5.28;2.83;;;;;;;10.44;100.00;101402.59;5003732;28;20033;-83
2021/10/28 17:11:10;;;;;;;5.95;3.00;;;;;;;10.61;100.00;101406.41;5021031;28;20033;-83
2021/10/28 17:13:37;;;;;;;3.53;2.22;;;;;;;10.65;100.00;101407.81;5039688;28;20068;-83
2021/10/28 17:16:03;;;;;;;4.43;2.30;;;;;;;10.69;100.00;101398.72;5015950;28;20033;-83
2021/10/28 17:18:28;;;;;;;3.50;2.17;;;;;;;10.63;100.00;101395.81;5056253;28;20032;-83
2021/10/28 17:21:00;;;;;;;4.30;2.20;;;;;;;10.60;100.00;101396.06;5036185;28;20041;-82
2021/10/28 17:23:33;;;;;;;4.20;2.30;;;;;;;10.56;100.00;101402.53;5023962;28;20033;-84
2021/10/28 17:26:02;;;;;;;4.57;2.40;;;;;;;10.63;100.00;101401.88;5025710;28;20483;-83
2021/10/28 17:28:27;;;;;;;2.92;2.15;;;;;;;10.68;100.00;101401.47;5038118;28;20507;-84
2021/10/28 17:30:53;;;;;;;5.20;2.30;;;;;;;10.66;100.00;101401.63;5017242;28;20037;-83
2021/10/28 17:33:19;;;;;;;4.45;2.08;;;;;;;10.68;100.00;101404.09;5045469;28;20062;-83
2021/10/28 17:35:44;;;;;;;6.13;1.90;;;;;;;10.62;100.00;101407.25;5023466;28;20037;-83
2021/10/28 17:38:10;;;;;;;6.50;2.38;;;;;;;10.51;100.00;101388.00;5022828;28;20076;-83
2021/10/28 17:40:36;;;;;;;4.68;2.65;;;;;;;10.59;100.00;101397.84;5034392;28;20091;-83
2021/10/28 17:43:02;;;;;;;4.53;2.50;;;;;;;10.55;100.00;101379.88;5039550;28;20041;-83
2021/10/28 17:45:30;;;;;;;5.80;2.90;;;;;;;10.63;100.00;101390.56;5027824;28;20443;-82
2021/10/28 17:47:57;;;;;;;4.85;2.80;;;;;;;10.56;100.00;101389.41;5041800;28;20111;-83
2021/10/28 17:50:24;;;;;;;6.78;3.08;;;;;;;10.67;100.00;101384.09;4993468;28;20036;-84
2021/10/28 17:52:50;;;;;;;8.70;3.40;;;;;;;10.70;100.00;101384.66;5026392;28;20041;-83
2021/10/28 17:55:15;;;;;;;4.97;3.60;;;;;;;10.96;100.00;101394.69;5037316;28;20037;-82
2021/10/28 17:57:44;;;;;;;7.20;4.47;;;;;;;11.16;100.00;101392.94;5056275;28;20119;-82
2021/10/28 18:00:12;;;;;;;6.03;4.45;;;;;;;11.27;100.00;101379.72;5034336;28;20075;-81
2021/10/28 18:02:39;;;;;;;8.15;4.30;;;;;;;11.17;100.00;101373.63;5016877;28;20103;-81
2021/10/28 18:05:05;;;;;;;4.78;3.83;;;;;;;11.12;100.00;101385.50;5025187;28;20124;-83
2021/10/28 18:07:31;;;;;;;6.45;5.00;;;;;;;11.08;100.00;101388.38;5024366;28;20033;-83
2021/10/28 18:09:58;;;;;;;5.70;4.88;;;;;;;11.02;100.00;101391.53;5016848;28;20250;-82
2021/10/28 18:12:25;;;;;;;7.25;4.80;;;;;;;10.88;100.00;101390.09;5036755;28;20029;-81
2021/10/28 18:14:50;;;;;;;8.45;5.68;;;;;;;10.80;100.00;101386.50;5037581;28;20040;-81
2021/10/28 18:17:18;;;;;;;6.85;5.55;;;;;;;10.70;100.00;101373.34;5038013;28;20041;-82
2021/10/28 18:19:47;;;;;;;11.48;5.72;;;;;;;10.64;100.00;101374.69;5043537;28;20049;-82
2021/10/28 18:22:14;;;;;;;6.68;5.25;;;;;;;10.46;100.00;101369.22;5023286;28;20045;-81
2021/10/28 18:24:40;;;;;;;9.07;6.47;;;;;;;10.45;100.00;101379.81;5021019;28;20091;-82
2021/10/28 18:27:08;;;;;;;11.50;7.47;;;;;;;10.48;100.00;101367.28;5021638;28;20045;-81
2021/10/28 18:29:34;;;;;;;8.73;6.80;;;;;;;10.52;100.00;101370.47;5039591;28;20112;-81
2021/10/28 18:32:00;;;;;;;14.00;7.70;;;;;;;10.67;100.00;101377.03;5006437;28;20422;-81
2021/10/28 18:34:26;;;;;;;11.38;8.10;;;;;;;10.68;100.00;101383.97;5037345;28;20035;-80
2021/10/28 18:36:52;;;;;;;16.08;8.55;;;;;;;10.74;100.00;101387.00;5033089;28;20112;-82
2021/10/28 18:39:19;;;;;;;15.25;8.07;;;;;;;10.74;100.00;101372.09;5041343;28;20079;-80
2021/10/28 18:41:47;;;;;;;14.50;8.05;;;;;;;10.74;100.00;101374.72;5021645;28;20037;-80
2021/10/28 18:44:14;;;;;;;12.15;9.27;;;;;;;10.82;100.00;101366.19;5044039;28;20041;-82
2021/10/28 18:46:40;;;;;;;13.27;9.18;;;;;;;10.79;100.00;101367.25;5019639;28;20072;-81
2021/10/28 18:49:07;;;;;;;16.48;9.63;;;;;;;10.77;100.00;101368.38;5035056;28;20127;-81
2021/10/28 18:51:35;;;;;;;15.45;9.15;;;;;;;10.72;100.00;101358.28;5039056;28;20045;-81
2021/10/28 18:54:02;;;;;;;15.20;9.30;;;;;;;10.63;100.00;101354.66;5028309;28;20415;-81
2021/10/28 18:56:28;;;;;;;14.82;9.68;;;;;;;10.66;100.00;101350.91;5032506;28;20133;-81
2021/10/28 18:58:53;;;;;;;17.02;9.77;;;;;;;10.56;100.00;101345.63;5022388;28;20134;-81
2021/10/28 19:01:19;;;;;;;13.98;10.00;;;;;;;10.52;100.00;101339.00;5011148;28;20044;-81
2021/10/28 19:03:46;;;;;;;16.80;10.25;;;;;;;10.52;100.00;101334.56;5035994;28;20086;-81
2021/10/28 19:06:14;;;;;;;14.25;9.82;;;;;;;10.46;100.00;101332.50;5029568;28;20491;-81
2021/10/28 19:08:40;;;;;;;17.10;10.80;;;;;;;10.46;100.00;101323.78;5018070;28;20041;-82
2021/10/28 19:11:09;;;;;;;15.60;10.80;;;;;;;10.34;100.00;101323.06;5037799;28;20047;-80
2021/10/28 19:13:40;;;;;;;15.23;10.57;;;;;;;10.28;100.00;101329.63;5036242;28;20398;-80
2021/10/28 19:16:07;;;;;;;19.42;11.98;;;;;;;10.24;100.00;101332.63;5014910;28;20041;-82
2021/10/28 19:18:33;;;;;;;17.52;12.05;;;;;;;10.14;100.00;101324.72;5008715;28;20029;-82
2021/10/28 19:21:00;;;;;;;20.23;11.98;;;;;;;10.18;100.00;101325.28;5043732;28;20106;-81
2021/10/28 19:23:26;;;;;;;18.73;12.25;;;;;;;10.14;100.00;101325.53;5017951;28;20083;-81
2021/10/28 19:25:52;;;;;;;16.77;10.98;;;;;;;10.11;100.00;101330.19;5037124;28;20033;-82
2021/10/28 19:28:17;;;;;;;18.10;11.77;;;;;;;10.12;100.00;101316.16;5034753;28;20136;-81
2021/10/28 19:30:52;;;;;;;20.75;12.93;;;;;;;10.10;100.00;101311.03;5037691;28;20034;-81
2021/10/28 19:33:22;;;;;;;17.48;12.27;;;;;;;10.08;100.00;101312.13;5033511;28;20430;-81
2021/10/28 19:35:53;;;;;;;18.85;11.98;;;;;;;9.95;100.00;101309.69;5034832;28;20044;-81
2021/10/28 19:41:21;;;;;;;16.35;12.20;;;;;;;9.94;100.00;101311.50;5023784;28;20491;-81